Time;durP1;ratioP1;P1;durP2;ratioP2;P2;SDS_P1;SDS_P2;PMS_P1;PMS_P2;Temp;Humidity;BMP_temperature;BMP_pressure;BME280_temperature;BME280_humidity;BME280_pressure;Samples;Min_cycle;Max_cycle;Signal;HPM_P1;HPM_P2
2021/01/13 00:00:20;;;;;;;10.23;3.30;;;;;;;1.63;78.64;99957.50;5039716;28;20037;-71
2021/01/13 00:02:46;;;;;;;10.37;4.00;;;;;;;1.62;78.81;99966.13;5039424;28;20077;-71
2021/01/13 00:05:15;;;;;;;8.60;3.80;;;;;;;1.60;78.60;99962.66;5042397;28;20048;-71
2021/01/13 00:07:44;;;;;;;14.13;4.00;;;;;;;1.57;78.93;99957.38;5043029;28;20033;-71
2021/01/13 00:10:10;;;;;;;11.52;3.50;;;;;;;1.58;78.76;99974.75;5040338;28;20036;-70
2021/01/13 00:12:37;;;;;;;11.50;3.40;;;;;;;1.58;78.57;99966.06;5039157;28;20033;-71
2021/01/13 00:15:06;;;;;;;9.90;2.63;;;;;;;1.59;79.00;99966.09;5041059;28;20033;-71
2021/01/13 00:17:31;;;;;;;8.57;3.13;;;;;;;1.56;78.70;99967.75;5042824;28;20033;-70
2021/01/13 00:19:57;;;;;;;10.10;2.83;;;;;;;1.59;78.73;99975.63;5041957;28;20041;-71
2021/01/13 00:22:24;;;;;;;10.82;3.58;;;;;;;1.59;78.27;99978.22;5039184;28;20129;-71
2021/01/13 00:24:50;;;;;;;8.83;2.80;;;;;;;1.52;78.68;99987.63;5039434;28;20042;-72
2021/01/13 00:27:16;;;;;;;17.07;3.03;;;;;;;1.39;79.36;99980.38;5031253;28;20045;-72
2021/01/13 00:29:47;;;;;;;9.48;2.63;;;;;;;1.35;79.24;99982.03;5039436;28;20041;-70
2021/01/13 00:32:12;;;;;;;9.47;2.80;;;;;;;1.34;78.87;99979.41;5042041;28;20120;-71
2021/01/13 00:34:37;;;;;;;12.47;2.87;;;;;;;1.24;79.62;99988.72;5042678;28;20037;-71
2021/01/13 00:37:06;;;;;;;10.47;3.50;;;;;;;1.16;80.02;100004.16;5040970;28;20037;-71
2021/01/13 00:39:31;;;;;;;17.03;3.00;;;;;;;1.07;79.79;99996.13;5039191;28;20140;-71
2021/01/13 00:41:56;;;;;;;8.07;2.20;;;;;;;0.93;80.16;99989.75;5040113;28;20128;-71
2021/01/13 00:44:22;;;;;;;10.13;2.50;;;;;;;0.77;80.82;100004.94;5042352;28;20414;-72
2021/01/13 00:46:47;;;;;;;13.13;2.40;;;;;;;0.66;81.21;100009.00;5042704;28;20724;-71
2021/01/13 00:49:12;;;;;;;14.53;2.80;;;;;;;0.62;81.45;99996.75;5042135;28;20055;-71
2021/01/13 00:51:42;;;;;;;8.23;2.50;;;;;;;0.66;81.27;100011.59;5039516;28;20120;-71
2021/01/13 00:54:10;;;;;;;8.03;2.10;;;;;;;0.60;81.47;100008.81;5041116;28;20037;-71
2021/01/13 00:56:41;;;;;;;13.90;2.40;;;;;;;0.47;81.97;100012.81;5041246;28;20037;-71
2021/01/13 00:59:07;;;;;;;10.63;2.07;;;;;;;0.42;81.50;100009.25;5040190;28;20086;-70
2021/01/13 01:01:32;;;;;;;11.40;2.20;;;;;;;0.40;82.29;100019.59;5039123;28;20053;-71
2021/01/13 01:03:58;;;;;;;16.43;2.97;;;;;;;0.46;81.96;100026.66;5039811;28;20479;-71
2021/01/13 01:06:24;;;;;;;8.00;1.93;;;;;;;0.40;81.49;100017.00;5042513;28;20039;-71
2021/01/13 01:08:51;;;;;;;9.33;1.70;;;;;;;0.30;81.67;100024.50;5042418;28;20028;-71
2021/01/13 01:11:24;;;;;;;11.67;2.07;;;;;;;0.29;81.97;100025.31;5030928;28;20048;-71
2021/01/13 01:13:50;;;;;;;8.60;1.60;;;;;;;0.29;82.24;100027.91;5038560;28;20037;-70
2021/01/13 01:16:16;;;;;;;12.57;1.80;;;;;;;0.33;82.06;100033.22;5042224;28;20047;-71
2021/01/13 01:18:42;;;;;;;12.40;2.57;;;;;;;0.32;81.96;100039.28;5042328;28;20043;-70
2021/01/13 01:21:08;;;;;;;8.97;2.70;;;;;;;0.36;81.93;100040.22;5039915;28;20103;-71
2021/01/13 01:23:34;;;;;;;12.23;1.97;;;;;;;0.36;81.74;100040.22;5038633;28;20168;-70
2021/01/13 01:26:01;;;;;;;10.47;2.07;;;;;;;0.34;81.57;100047.09;5040095;28;20075;-70
2021/01/13 01:28:26;;;;;;;8.90;1.70;;;;;;;0.32;81.67;100039.28;5045310;28;20043;-70
2021/01/13 01:30:51;;;;;;;8.50;1.70;;;;;;;0.34;81.42;100042.78;5045754;28;20099;-70
2021/01/13 01:33:17;;;;;;;12.60;1.90;;;;;;;0.40;81.18;100045.53;5042074;28;20480;-72
2021/01/13 01:35:42;;;;;;;13.47;2.03;;;;;;;0.49;81.62;100054.41;5042348;28;20152;-71
2021/01/13 01:38:08;;;;;;;8.93;1.80;;;;;;;0.65;81.24;100046.19;5044554;28;20033;-71
2021/01/13 01:40:33;;;;;;;11.33;2.17;;;;;;;0.69;80.23;100050.63;5045779;28;20051;-71
2021/01/13 01:42:58;;;;;;;10.97;2.10;;;;;;;0.72;79.92;100045.50;5044239;28;20076;-71
2021/01/13 01:45:28;;;;;;;11.20;2.47;;;;;;;0.67;80.23;100051.44;5042152;28;20049;-71
2021/01/13 01:48:15;;;;;;;12.87;2.40;;;;;;;0.64;80.33;100057.44;5042569;28;20053;-71
2021/01/13 01:50:45;;;;;;;11.00;2.30;;;;;;;0.68;79.81;100066.16;5044312;28;20029;-71
2021/01/13 01:53:13;;;;;;;9.73;2.30;;;;;;;0.74;79.90;100054.22;5042266;28;20030;-72
2021/01/13 01:56:00;;;;;;;11.43;2.40;;;;;;;0.69;79.84;100050.63;5041946;28;20412;-72
2021/01/13 01:58:28;;;;;;;8.10;2.20;;;;;;;0.76;79.89;100056.84;5035019;28;20035;-71
2021/01/13 02:00:56;;;;;;;11.63;2.10;;;;;;;0.76;79.81;100065.53;5041318;28;20397;-71
2021/01/13 02:03:26;;;;;;;10.87;2.03;;;;;;;0.80;79.37;100051.78;5045008;28;20033;-71
2021/01/13 02:05:57;;;;;;;12.27;2.17;;;;;;;0.89;79.52;100058.91;5044992;28;20545;-71
2021/01/13 02:08:22;;;;;;;5.90;1.57;;;;;;;0.82;79.01;100060.50;5041756;28;20042;-71
2021/01/13 02:10:48;;;;;;;8.50;1.93;;;;;;;0.78;79.42;100063.84;5041746;28;20156;-71
2021/01/13 02:13:15;;;;;;;12.47;1.80;;;;;;;0.79;79.22;100060.44;5044560;28;20033;-71
2021/01/13 02:15:40;;;;;;;14.83;2.00;;;;;;;0.83;79.52;100054.44;5044997;28;20032;-71
2021/01/13 02:18:09;;;;;;;12.30;2.03;;;;;;;0.92;79.25;100064.22;5042791;28;20055;-71
2021/01/13 02:20:39;;;;;;;9.60;1.57;;;;;;;0.98;79.34;100063.47;5041518;28;20041;-71
2021/01/13 02:23:06;;;;;;;11.37;1.63;;;;;;;1.14;78.87;100072.53;5043068;28;20041;-71
2021/01/13 02:26:03;;;;;;;8.20;1.67;;;;;;;1.10;78.59;100063.75;5044818;28;20037;-70
2021/01/13 02:28:28;;;;;;;16.17;1.77;;;;;;;1.16;78.51;100063.06;5034921;28;20047;-71
2021/01/13 02:31:02;;;;;;;9.03;1.30;;;;;;;1.18;78.67;100050.97;5041697;28;20038;-71
2021/01/13 02:33:42;;;;;;;8.83;1.57;;;;;;;1.13;78.32;100049.97;5044409;28;20119;-70
2021/01/13 02:36:18;;;;;;;9.27;1.60;;;;;;;1.13;78.08;100052.56;5042350;28;20399;-71
2021/01/13 02:38:48;;;;;;;9.00;1.50;;;;;;;1.06;78.43;100061.94;5040141;28;20076;-72
2021/01/13 02:41:19;;;;;;;10.67;2.30;;;;;;;1.05;78.46;100055.88;5044315;28;20037;-70
2021/01/13 02:43:56;;;;;;;10.23;1.60;;;;;;;1.04;78.34;100063.63;5044295;28;20041;-70
2021/01/13 02:46:49;;;;;;;9.40;1.57;;;;;;;1.06;78.30;100061.94;5033609;28;20131;-71
2021/01/13 02:49:20;;;;;;;12.03;1.90;;;;;;;1.02;78.50;100065.31;5044255;28;20074;-70
2021/01/13 02:51:50;;;;;;;8.93;1.23;;;;;;;1.02;78.73;100070.50;5044438;28;20041;-70
2021/01/13 02:54:29;;;;;;;8.60;1.40;;;;;;;0.96;78.69;100065.16;5040577;28;20458;-71
2021/01/13 02:57:04;;;;;;;13.33;2.00;;;;;;;0.92;78.51;100064.22;5041363;28;20444;-70
2021/01/13 02:59:33;;;;;;;8.80;1.43;;;;;;;0.98;78.64;100079.06;5050860;28;20032;-71
2021/01/13 03:01:58;;;;;;;14.67;1.80;;;;;;;1.09;78.02;100060.28;5042883;28;20097;-70
2021/01/13 03:04:24;;;;;;;9.83;1.37;;;;;;;1.07;78.17;100074.09;5040451;28;20041;-71
2021/01/13 03:06:50;;;;;;;9.10;1.30;;;;;;;1.07;78.00;100069.78;5040636;28;20025;-71
2021/01/13 03:09:16;;;;;;;9.50;1.87;;;;;;;1.11;78.38;100077.66;5042985;28;20037;-70
2021/01/13 03:11:42;;;;;;;10.17;1.57;;;;;;;1.19;77.46;100082.19;5043989;28;20487;-71
2021/01/13 03:14:14;;;;;;;9.77;1.87;;;;;;;1.18;77.38;100079.56;5041692;28;20126;-71
2021/01/13 03:16:44;;;;;;;12.38;2.17;;;;;;;1.14;78.03;100081.22;5040393;28;20102;-70
2021/01/13 03:19:19;;;;;;;12.30;1.70;;;;;;;1.26;77.27;100091.03;5043008;28;20496;-71
2021/01/13 03:21:58;;;;;;;16.67;3.00;;;;;;;1.36;76.82;100093.00;5043887;28;20045;-71
2021/01/13 03:24:46;;;;;;;13.97;1.80;;;;;;;1.40;76.61;100101.75;5032922;28;20034;-71
2021/01/13 03:27:15;;;;;;;8.30;1.60;;;;;;;1.41;76.85;100090.50;5043045;28;20040;-71
2021/01/13 03:29:43;;;;;;;10.10;1.20;;;;;;;1.47;76.67;100096.75;5043696;28;20060;-71
2021/01/13 03:32:13;;;;;;;14.35;3.15;;;;;;;1.41;76.53;100091.38;5041067;28;20041;-71
2021/01/13 03:34:58;;;;;;;5.67;1.30;;;;;;;1.44;76.78;100095.78;5039993;28;20037;-72
2021/01/13 03:37:25;;;;;;;14.87;1.47;;;;;;;1.54;76.33;100097.75;5032855;28;20041;-71
2021/01/13 03:39:55;;;;;;;11.07;2.03;;;;;;;1.51;76.53;100098.56;5039921;28;20033;-71
2021/01/13 03:42:22;;;;;;;13.70;2.00;;;;;;;1.49;76.52;100104.56;5032425;28;20041;-71
2021/01/13 03:44:48;;;;;;;11.10;2.00;;;;;;;1.47;76.42;100093.28;5039906;28;20499;-71
2021/01/13 03:47:29;;;;;;;10.60;1.83;;;;;;;1.57;75.94;100097.81;5043037;28;20037;-70
2021/01/13 03:50:17;;;;;;;14.30;2.27;;;;;;;1.50;76.59;100096.81;5042576;28;20567;-71
2021/01/13 03:52:59;;;;;;;10.13;1.27;;;;;;;1.54;76.05;100101.22;5039383;28;20084;-71
2021/01/13 03:55:27;;;;;;;19.17;2.30;;;;;;;1.61;75.66;100097.06;5032811;28;20047;-71
2021/01/13 03:57:58;;;;;;;8.60;2.17;;;;;;;1.53;75.67;100088.22;5039872;28;20036;-70
2021/01/13 04:00:40;;;;;;;9.13;1.80;;;;;;;1.52;75.68;100105.53;5042980;28;20033;-71
2021/01/13 04:03:18;;;;;;;7.15;1.60;;;;;;;1.58;75.83;100103.94;5040927;28;20045;-72
2021/01/13 04:06:04;;;;;;;10.23;1.73;;;;;;;1.62;75.47;100100.53;5039574;28;20041;-71
2021/01/13 04:08:45;;;;;;;13.37;1.73;;;;;;;1.63;75.25;100100.59;5033220;28;20403;-71
2021/01/13 04:11:22;;;;;;;7.80;2.00;;;;;;;1.65;75.68;100100.59;5042367;28;20072;-71
2021/01/13 04:13:52;;;;;;;14.57;2.10;;;;;;;1.69;74.76;100092.03;5042671;28;20052;-71
2021/01/13 04:16:19;;;;;;;9.10;1.40;;;;;;;1.71;75.40;100088.63;5031403;28;20079;-71
2021/01/13 04:18:46;;;;;;;11.55;2.22;;;;;;;1.72;74.68;100094.69;5039503;28;20048;-71
2021/01/13 04:21:13;;;;;;;8.30;1.52;;;;;;;1.66;74.94;100098.03;5042161;28;20034;-71
2021/01/13 04:23:40;;;;;;;9.25;1.63;;;;;;;1.65;74.66;100101.50;5042591;28;20029;-71
2021/01/13 04:26:05;;;;;;;6.82;1.40;;;;;;;1.73;74.79;100091.28;5040801;28;20036;-70
2021/01/13 04:28:31;;;;;;;10.27;2.37;;;;;;;1.73;75.86;100094.75;5039266;28;20047;-71
2021/01/13 04:30:57;;;;;;;9.45;1.70;;;;;;;1.76;74.33;100088.72;5040132;28;20033;-71
2021/01/13 04:33:24;;;;;;;7.93;1.80;;;;;;;1.74;74.75;100086.09;5054851;22;20052;-78
2021/01/13 04:35:50;;;;;;;12.40;2.63;;;;;;;1.83;75.23;100094.94;5051575;28;20099;-78
2021/01/13 04:38:30;;;;;;;6.88;1.80;;;;;;;1.88;75.35;100086.38;5037293;28;20037;-78
2021/01/13 04:41:13;;;;;;;10.77;2.28;;;;;;;1.95;74.69;100083.06;5034072;28;20124;-78
2021/01/13 04:43:57;;;;;;;7.75;1.73;;;;;;;1.77;74.86;100087.00;5035678;28;20041;-78
2021/01/13 04:46:35;;;;;;;10.30;1.95;;;;;;;1.81;75.11;100091.41;5022878;28;20037;-78
2021/01/13 04:49:09;;;;;;;14.93;1.88;;;;;;;1.86;75.04;100097.59;5033787;28;20026;-78
2021/01/13 04:51:37;;;;;;;8.40;1.80;;;;;;;1.83;75.11;100089.72;5034111;28;20128;-77
2021/01/13 04:54:07;;;;;;;6.10;1.87;;;;;;;1.83;75.12;100089.72;5033783;28;20039;-78
2021/01/13 04:56:42;;;;;;;9.30;1.70;;;;;;;1.72;75.25;100097.31;5033751;28;20068;-77
2021/01/13 04:59:45;;;;;;;6.80;1.65;;;;;;;1.77;75.43;100087.00;5034505;28;20041;-77
2021/01/13 05:02:17;;;;;;;13.35;2.38;;;;;;;1.69;75.53;100084.22;5043856;28;20060;-77
2021/01/13 05:04:59;;;;;;;;;;;;;;;1.59;75.70;100085.72;5037005;28;20049;-78
2021/01/13 05:07:30;;;;;;;10.10;1.77;;;;;;;1.64;75.55;100097.13;5031751;28;19919;-77
2021/01/13 05:10:03;;;;;;;10.57;1.58;;;;;;;1.68;75.51;100095.50;5037833;28;20038;-78
2021/01/13 05:12:48;;;;;;;8.57;1.58;;;;;;;1.66;75.44;100092.84;5038542;28;20454;-77
2021/01/13 05:15:16;;;;;;;6.63;1.63;;;;;;;1.72;75.08;100092.97;5038247;28;20091;-77
2021/01/13 05:18:03;;;;;;;7.65;1.65;;;;;;;1.72;74.95;100094.69;5037602;28;20042;-78
2021/01/13 05:20:34;;;;;;;11.33;2.63;;;;;;;1.74;74.97;100091.28;5030774;28;20037;-77
2021/01/13 05:23:00;;;;;;;9.48;1.73;;;;;;;1.72;75.03;100098.16;5037354;28;20040;-77
2021/01/13 05:25:39;;;;;;;11.80;2.13;;;;;;;1.71;75.02;100091.22;5034483;28;20033;-78
2021/01/13 05:28:25;;;;;;;12.43;2.33;;;;;;;1.74;74.86;100093.88;5027533;28;20044;-78
2021/01/13 05:30:53;;;;;;;12.55;3.00;;;;;;;1.75;74.97;100097.38;5036526;28;20525;-79
2021/01/13 05:33:21;;;;;;;8.60;1.73;;;;;;;1.75;74.85;100095.63;5026799;28;20469;-79
2021/01/13 05:35:50;;;;;;;8.48;1.88;;;;;;;1.84;74.46;100096.72;5035996;28;20044;-77
2021/01/13 05:38:25;;;;;;;8.98;1.83;;;;;;;1.80;74.98;100098.34;5040473;28;20076;-77
2021/01/13 05:40:53;;;;;;;8.48;2.15;;;;;;;1.78;74.37;100101.75;5043731;28;20037;-79
2021/01/13 05:43:20;;;;;;;10.73;2.10;;;;;;;1.82;74.42;100086.25;5028527;28;20116;-78
2021/01/13 05:45:46;;;;;;;8.95;1.90;;;;;;;1.81;74.56;100112.22;5038644;28;20040;-78
2021/01/13 05:48:16;;;;;;;11.35;2.72;;;;;;;1.78;74.02;100097.44;5042048;28;20041;-79
2021/01/13 05:50:42;;;;;;;9.25;1.80;;;;;;;1.78;74.43;100097.44;5042148;28;20099;-78
2021/01/13 05:53:08;;;;;;;6.65;2.00;;;;;;;1.86;74.02;100090.69;5040586;28;20033;-79
2021/01/13 05:55:33;;;;;;;12.18;2.45;;;;;;;1.78;74.53;100112.16;5042165;28;20124;-80
2021/01/13 05:58:00;;;;;;;10.10;2.53;;;;;;;1.75;74.78;100098.22;5039647;28;20076;-78
2021/01/13 06:00:27;;;;;;;10.52;2.50;;;;;;;1.87;75.03;100101.97;5040993;28;20043;-78
2021/01/13 06:03:11;;;;;;;11.23;2.57;;;;;;;1.87;73.97;100097.66;5038511;28;20029;-78
2021/01/13 06:05:47;;;;;;;11.38;2.20;;;;;;;1.85;74.31;100111.47;5038485;28;20048;-78
2021/01/13 06:08:13;;;;;;;9.97;2.10;;;;;;;1.90;74.52;100102.03;5041732;28;20096;-79
2021/01/13 06:10:40;;;;;;;12.13;2.78;;;;;;;1.97;74.16;100103.94;5040985;28;20131;-78
2021/01/13 06:13:06;;;;;;;12.13;2.40;;;;;;;1.90;74.38;100107.25;5038558;28;20094;-78
2021/01/13 06:15:31;;;;;;;9.85;2.33;;;;;;;1.94;73.74;100103.88;5039858;28;20509;-79
2021/01/13 06:17:59;;;;;;;8.00;1.83;;;;;;;1.94;73.97;100098.66;5040070;28;20045;-77
2021/01/13 06:20:29;;;;;;;8.15;2.15;;;;;;;1.95;74.08;100100.41;5040033;28;20504;-78
2021/01/13 06:22:59;;;;;;;11.38;2.10;;;;;;;1.91;73.93;100103.78;5038298;28;20037;-77
2021/01/13 06:25:25;;;;;;;11.23;2.22;;;;;;;1.98;74.06;100103.09;5039285;28;20037;-78
2021/01/13 06:27:56;;;;;;;13.73;2.40;;;;;;;1.93;73.63;100113.38;5039201;28;20507;-79
2021/01/13 06:30:29;;;;;;;10.27;2.90;;;;;;;1.92;74.13;100105.56;5031870;28;20046;-78
2021/01/13 06:33:03;;;;;;;;;;;;;;;1.89;73.65;100110.72;5040069;28;20033;-79
2021/01/13 06:35:41;;;;;;;8.63;2.00;;;;;;;1.88;73.60;100102.00;5039041;28;20386;-78
2021/01/13 06:38:10;;;;;;;10.68;2.05;;;;;;;1.90;74.14;100102.03;5039996;28;20506;-78
2021/01/13 06:40:36;;;;;;;9.73;1.73;;;;;;;1.95;74.15;100100.41;5038908;28;20407;-77
2021/01/13 06:43:11;;;;;;;12.52;3.30;;;;;;;1.88;74.37;100106.31;5039531;28;20045;-77
2021/01/13 06:45:36;;;;;;;8.00;1.75;;;;;;;1.91;74.44;100103.78;5040418;28;20041;-78
2021/01/13 06:48:02;;;;;;;10.57;1.88;;;;;;;1.91;74.53;100099.47;5031296;28;20044;-78
2021/01/13 06:50:35;;;;;;;13.73;2.05;;;;;;;1.97;74.05;100106.53;5038412;28;20067;-78
2021/01/13 06:53:11;;;;;;;9.40;2.25;;;;;;;2.00;74.05;100109.22;5033364;28;20056;-78
2021/01/13 06:55:39;;;;;;;10.95;2.50;;;;;;;1.99;74.35;100107.44;5034956;28;20042;-79
2021/01/13 06:58:15;;;;;;;8.60;2.30;;;;;;;2.00;74.60;100109.22;5037769;28;20079;-77
2021/01/13 07:00:42;;;;;;;11.50;3.10;;;;;;;2.00;74.02;100113.53;5045973;28;20037;-79
2021/01/13 07:03:21;;;;;;;7.28;2.10;;;;;;;1.97;73.75;100107.41;5039862;28;20026;-78
2021/01/13 07:05:46;;;;;;;10.48;2.55;;;;;;;1.91;74.85;100111.59;5039083;28;20060;-77
2021/01/13 07:08:12;;;;;;;11.63;2.60;;;;;;;1.85;74.06;100121.88;5037100;28;20487;-79
2021/01/13 07:10:37;;;;;;;11.85;3.80;;;;;;;1.75;74.36;100120.78;5039317;28;20045;-78
2021/01/13 07:13:05;;;;;;;13.57;3.40;;;;;;;1.58;75.08;100117.81;5038699;28;20056;-78
2021/01/13 07:15:32;;;;;;;14.13;2.78;;;;;;;1.48;75.50;100126.22;5038436;28;20047;-76
2021/01/13 07:17:58;;;;;;;6.93;2.10;;;;;;;1.40;75.59;100125.16;5037278;28;20037;-78
2021/01/13 07:20:23;;;;;;;9.55;2.50;;;;;;;1.44;75.79;100126.97;5039268;28;20132;-78
2021/01/13 07:22:49;;;;;;;14.90;2.93;;;;;;;1.51;75.51;100126.28;5038930;28;20044;-78
2021/01/13 07:25:15;;;;;;;12.53;2.20;;;;;;;1.57;75.58;100116.03;5038988;28;20045;-78
2021/01/13 07:27:44;;;;;;;9.93;3.13;;;;;;;1.59;75.44;100118.69;5036867;28;20084;-78
2021/01/13 07:30:15;;;;;;;10.90;2.72;;;;;;;1.59;74.70;100122.16;5031553;28;20365;-78
2021/01/13 07:32:41;;;;;;;10.75;2.83;;;;;;;1.54;74.75;100113.34;5036890;28;20038;-78
2021/01/13 07:35:07;;;;;;;12.55;2.40;;;;;;;1.40;74.92;100119.97;5037341;28;20065;-78
2021/01/13 07:37:51;;;;;;;11.37;2.67;;;;;;;1.19;75.60;100110.78;5037449;28;20052;-78
2021/01/13 07:40:28;;;;;;;10.37;2.70;;;;;;;1.08;75.88;100107.06;5037572;28;20133;-78
2021/01/13 07:43:10;;;;;;;13.50;2.57;;;;;;;1.01;76.52;100110.34;5036193;28;20041;-76
2021/01/13 07:45:43;;;;;;;8.93;2.05;;;;;;;0.98;76.29;100115.44;5037532;28;20095;-77
2021/01/13 07:48:09;;;;;;;9.87;2.37;;;;;;;1.09;76.33;100119.19;5038508;28;20044;-79
2021/01/13 07:50:39;;;;;;;11.73;2.73;;;;;;;1.21;76.21;100119.50;5038379;28;20041;-79
2021/01/13 07:53:09;;;;;;;12.23;2.40;;;;;;;1.31;76.14;100121.50;5039698;28;20119;-78
2021/01/13 07:55:41;;;;;;;10.00;2.23;;;;;;;1.41;76.16;100129.50;5040002;28;20041;-78
2021/01/13 07:58:18;;;;;;;14.90;3.17;;;;;;;1.48;75.59;100128.81;5040660;28;20507;-78
2021/01/13 08:00:57;;;;;;;12.50;2.70;;;;;;;1.53;75.40;100127.22;5033077;28;20032;-78
2021/01/13 08:04:00;;;;;;;11.23;2.97;;;;;;;1.59;75.16;100122.16;5036791;28;20429;-78
2021/01/13 08:06:34;;;;;;;12.40;3.17;;;;;;;1.68;75.02;100117.19;5031785;28;20102;-78
2021/01/13 08:09:13;;;;;;;11.03;2.47;;;;;;;1.76;74.60;100119.94;5037362;28;20614;-78
2021/01/13 08:12:03;;;;;;;12.60;3.47;;;;;;;1.81;74.50;100125.25;5036927;28;20072;-77
2021/01/13 08:14:57;;;;;;;11.73;2.57;;;;;;;1.87;74.38;100120.19;5030945;28;20069;-79
2021/01/13 08:17:55;;;;;;;16.10;3.00;;;;;;;1.84;74.53;100117.53;5029601;28;20057;-77
2021/01/13 08:20:32;;;;;;;11.60;3.58;;;;;;;1.84;74.62;100123.59;5029421;28;20674;-78
2021/01/13 08:23:09;;;;;;;21.57;3.50;;;;;;;1.86;74.47;100127.13;5032438;28;20557;-78
2021/01/13 08:25:42;;;;;;;12.98;3.78;;;;;;;1.86;74.47;100123.63;5036950;28;20038;-79
2021/01/13 08:28:11;;;;;;;9.27;2.90;;;;;;;1.95;74.49;100116.03;5035972;28;20068;-78
2021/01/13 08:30:40;;;;;;;15.30;2.83;;;;;;;2.06;74.49;100114.53;5037014;28;20049;-78
2021/01/13 08:33:09;;;;;;;13.13;2.53;;;;;;;2.09;73.65;100111.13;5037117;28;20140;-78
2021/01/13 08:35:36;;;;;;;12.18;2.10;;;;;;;2.10;74.22;100108.56;5038653;28;20519;-78
2021/01/13 08:38:09;;;;;;;12.90;2.83;;;;;;;2.18;74.12;100100.91;5042486;28;20071;-77
2021/01/13 08:40:37;;;;;;;10.40;2.55;;;;;;;2.10;73.71;100113.75;5042644;28;20044;-78
2021/01/13 08:43:07;;;;;;;8.73;2.50;;;;;;;2.14;74.37;100114.69;5040993;28;20083;-78
2021/01/13 08:45:38;;;;;;;11.77;2.90;;;;;;;2.10;73.95;100105.97;5042098;28;20087;-79
2021/01/13 08:48:22;;;;;;;12.90;2.17;;;;;;;2.16;73.78;100115.63;5042047;28;20087;-78
2021/01/13 08:51:03;;;;;;;7.57;2.40;;;;;;;2.22;74.14;100115.72;5042176;28;20065;-78
2021/01/13 08:53:28;;;;;;;8.30;2.40;;;;;;;2.30;73.70;100118.50;5028458;28;20393;-78
2021/01/13 08:55:54;;;;;;;9.57;2.30;;;;;;;2.31;73.81;100115.94;5041321;28;20040;-78
2021/01/13 08:58:33;;;;;;;10.88;2.05;;;;;;;2.31;73.99;100115.94;5051001;28;20044;-78
2021/01/13 09:01:02;;;;;;;17.38;6.20;;;;;;;2.27;74.46;100110.63;5042441;28;20033;-78
2021/01/13 09:03:34;;;;;;;8.85;2.63;;;;;;;2.22;74.00;100115.72;5042238;28;20041;-79
2021/01/13 09:06:19;;;;;;;17.35;4.32;;;;;;;2.17;75.05;100117.34;5041293;28;20042;-78
2021/01/13 09:08:50;;;;;;;10.55;3.63;;;;;;;2.18;75.00;100114.81;5043364;28;20029;-79
2021/01/13 09:11:29;;;;;;;9.98;2.65;;;;;;;2.21;75.14;100114.00;5042290;28;20060;-78
2021/01/13 09:13:55;;;;;;;8.93;2.50;;;;;;;2.13;75.84;100116.44;5039208;28;20041;-79
2021/01/13 09:16:26;;;;;;;17.30;4.38;;;;;;;2.14;76.21;100107.75;5042008;28;20063;-78
2021/01/13 09:19:04;;;;;;;10.15;3.50;;;;;;;2.12;76.87;100116.38;5042201;28;20034;-78
2021/01/13 09:21:31;;;;;;;10.65;2.38;;;;;;;2.12;77.11;100127.69;5042321;28;20053;-78
2021/01/13 09:23:57;;;;;;;14.25;2.13;;;;;;;2.15;77.01;100116.47;5040095;28;20611;-78
2021/01/13 09:26:29;;;;;;;11.07;2.17;;;;;;;2.11;76.60;100117.25;5041270;28;20037;-76
2021/01/13 09:29:04;;;;;;;13.27;2.53;;;;;;;2.10;77.03;100121.56;5042633;28;20209;-78
2021/01/13 09:31:29;;;;;;;10.55;2.30;;;;;;;2.17;76.55;100120.88;5042242;28;20039;-77
2021/01/13 09:33:55;;;;;;;12.18;2.83;;;;;;;2.14;76.48;100123.38;5042436;28;20034;-77
2021/01/13 09:36:21;;;;;;;11.07;2.47;;;;;;;2.18;76.38;100121.75;5042885;28;20045;-78
2021/01/13 09:38:49;;;;;;;10.65;2.50;;;;;;;2.21;76.22;100123.53;5041719;28;20034;-78
2021/01/13 09:41:23;;;;;;;11.60;2.53;;;;;;;2.18;77.02;100120.00;5040582;28;20057;-77
2021/01/13 09:43:49;;;;;;;9.43;2.30;;;;;;;2.19;76.78;100119.16;5041317;28;20037;-78
2021/01/13 09:46:20;;;;;;;7.40;1.80;;;;;;;2.13;77.14;100124.25;5039856;28;20056;-79
2021/01/13 09:49:00;;;;;;;6.60;1.75;;;;;;;2.13;77.04;100119.03;5039011;28;20508;-78
2021/01/13 09:51:27;;;;;;;11.57;2.25;;;;;;;2.14;77.14;100122.50;5034480;28;20030;-77
2021/01/13 09:53:54;;;;;;;11.32;2.65;;;;;;;2.10;78.00;100120.69;5039745;28;20037;-76
2021/01/13 09:56:20;;;;;;;16.75;2.88;;;;;;;2.13;77.75;100132.06;5033657;28;20143;-78
2021/01/13 09:58:48;;;;;;;10.10;2.47;;;;;;;2.19;77.26;100126.09;5041492;28;20033;-78
2021/01/13 10:01:21;;;;;;;10.68;2.50;;;;;;;2.18;77.12;100119.13;5023490;28;20033;-79
2021/01/13 10:03:48;;;;;;;12.05;2.40;;;;;;;2.20;77.44;100117.41;5036390;28;20037;-77
2021/01/13 10:06:15;;;;;;;9.88;2.03;;;;;;;2.17;77.62;100118.25;5039360;28;20037;-77
2021/01/13 10:08:41;;;;;;;13.75;2.28;;;;;;;2.13;77.58;100111.22;5039968;28;20037;-77
2021/01/13 10:11:07;;;;;;;10.50;1.98;;;;;;;2.12;77.65;100113.78;5040251;28;20499;-77
2021/01/13 10:13:36;;;;;;;12.18;3.38;;;;;;;2.14;77.68;100117.31;5038406;28;20120;-77
2021/01/13 10:16:02;;;;;;;10.82;2.95;;;;;;;2.11;78.17;100106.81;5038615;28;20044;-78
2021/01/13 10:18:28;;;;;;;10.15;1.92;;;;;;;2.17;77.34;100106.94;5038776;28;20045;-78
2021/01/13 10:20:55;;;;;;;14.93;2.83;;;;;;;2.22;77.40;100107.91;5039787;28;20049;-78
2021/01/13 10:23:25;;;;;;;11.15;2.15;;;;;;;2.25;76.47;100099.28;5038938;28;20033;-78
2021/01/13 10:26:03;;;;;;;9.88;2.42;;;;;;;2.20;77.43;100104.41;5040361;28;20079;-78
2021/01/13 10:28:28;;;;;;;9.27;2.10;;;;;;;2.44;76.39;100095.31;5033659;28;20037;-78
2021/01/13 10:30:54;;;;;;;10.52;2.40;;;;;;;2.39;76.53;100090.91;5039752;28;20087;-78
2021/01/13 10:33:42;;;;;;;10.07;2.50;;;;;;;2.43;75.99;100086.63;5059853;23;20038;-68
2021/01/13 10:36:08;;;;;;;16.13;2.42;;;;;;;2.53;75.74;100099.00;5043269;28;20092;-68
2021/01/13 10:38:38;;;;;;;15.65;2.58;;;;;;;2.47;75.52;100083.25;5044443;28;20029;-67
2021/01/13 10:41:04;;;;;;;6.40;1.65;;;;;;;2.41;76.32;100080.53;5043047;28;20036;-67
2021/01/13 10:43:32;;;;;;;10.45;1.88;;;;;;;2.51;74.92;100082.44;5036582;28;20037;-68
2021/01/13 10:45:59;;;;;;;8.95;1.80;;;;;;;2.52;74.56;100081.63;5023182;28;20045;-67
2021/01/13 10:48:24;;;;;;;7.03;1.70;;;;;;;2.50;74.82;100088.53;5032368;28;20078;-68
2021/01/13 10:50:52;;;;;;;11.18;2.17;;;;;;;2.51;74.68;100081.59;5028681;28;20033;-68
2021/01/13 10:53:17;;;;;;;8.30;2.38;;;;;;;2.52;74.56;100072.94;5032140;28;20547;-67
2021/01/13 10:55:50;;;;;;;6.85;1.80;;;;;;;2.47;73.94;100071.97;5026010;28;20125;-68
2021/01/13 10:58:24;;;;;;;16.00;2.92;;;;;;;2.50;73.84;100075.50;5024267;28;20045;-68
2021/01/13 11:01:03;;;;;;;10.95;2.20;;;;;;;2.43;74.03;100065.81;5031093;28;20048;-67
2021/01/13 11:03:32;;;;;;;9.30;2.45;;;;;;;2.53;73.73;100077.28;5026879;28;20022;-69
2021/01/13 11:05:58;;;;;;;9.73;2.78;;;;;;;2.44;73.59;100059.75;5046858;28;20041;-68
2021/01/13 11:08:27;;;;;;;13.30;2.80;;;;;;;2.39;73.71;100064.00;5024501;28;20102;-67
2021/01/13 11:11:06;;;;;;;8.80;2.38;;;;;;;2.45;73.74;100069.31;5024477;28;20454;-69
2021/01/13 11:13:31;;;;;;;9.68;2.40;;;;;;;2.57;73.91;100071.31;5029200;28;20045;-68
2021/01/13 11:15:57;;;;;;;7.43;1.80;;;;;;;2.43;74.24;100060.59;5025085;28;20087;-69
2021/01/13 11:18:24;;;;;;;10.57;2.72;;;;;;;2.43;74.56;100055.38;5023059;28;20037;-69
2021/01/13 11:20:52;;;;;;;10.82;2.70;;;;;;;2.48;74.92;100047.66;5028231;28;20175;-68
2021/01/13 11:23:17;;;;;;;9.88;2.20;;;;;;;2.55;75.14;100040.00;5031733;28;20036;-68
2021/01/13 11:25:43;;;;;;;11.23;2.65;;;;;;;2.46;74.97;100044.16;5023862;28;20026;-68
2021/01/13 11:28:13;;;;;;;8.80;2.30;;;;;;;2.35;75.76;100034.41;5021129;28;20503;-68
2021/01/13 11:30:43;;;;;;;7.82;2.30;;;;;;;2.41;75.92;100038.84;5020563;28;20038;-69
2021/01/13 11:33:12;;;;;;;7.70;2.13;;;;;;;2.39;76.03;100031.03;5022074;28;20042;-68
2021/01/13 11:35:53;;;;;;;10.48;2.40;;;;;;;2.35;76.14;100031.78;5030847;28;20047;-68
2021/01/13 11:38:50;;;;;;;13.57;2.85;;;;;;;2.33;76.25;100030.00;5024045;28;20528;-68
2021/01/13 11:41:27;;;;;;;7.25;2.20;;;;;;;2.37;75.90;100034.44;5020514;28;20038;-68
2021/01/13 11:44:08;;;;;;;8.15;2.30;;;;;;;2.33;76.21;100027.41;5019905;28;20053;-68
2021/01/13 11:46:44;;;;;;;10.43;2.65;;;;;;;2.28;76.19;100026.44;5023605;28;20052;-68